createdAt,value
2022-12-25T00:01:20.727Z,6.54
2022-12-25T00:04:07.000Z,6.55
2022-12-25T00:06:53.613Z,6.55
2022-12-25T00:09:40.238Z,6.56
2022-12-25T00:12:26.343Z,6.55
2022-12-25T00:15:12.690Z,6.53
2022-12-25T00:17:58.999Z,6.51
2022-12-25T00:20:45.229Z,6.50
2022-12-25T00:23:31.947Z,6.51
2022-12-25T00:26:18.156Z,6.54
2022-12-25T00:29:04.693Z,6.53
2022-12-25T00:31:50.911Z,6.54
2022-12-25T00:34:37.536Z,6.56
2022-12-25T00:37:23.899Z,6.56
2022-12-25T00:40:10.487Z,6.45
2022-12-25T00:42:56.731Z,6.33
2022-12-25T00:45:43.005Z,6.19
2022-12-25T00:48:29.501Z,6.13
2022-12-25T00:51:15.859Z,6.06
2022-12-25T00:54:02.210Z,5.98
2022-12-25T00:56:48.680Z,5.87
2022-12-25T00:59:35.118Z,5.76
2022-12-25T01:02:24.656Z,5.64
2022-12-25T01:05:11.170Z,5.56
2022-12-25T01:07:57.524Z,5.52
2022-12-25T01:10:44.020Z,5.53
2022-12-25T01:13:31.051Z,5.50
2022-12-25T01:16:17.847Z,5.50
2022-12-25T01:19:04.453Z,5.50
2022-12-25T01:21:50.711Z,5.56
2022-12-25T01:24:37.050Z,5.53
2022-12-25T01:27:23.711Z,5.45
2022-12-25T01:30:10.643Z,5.32
2022-12-25T01:32:57.352Z,5.27
2022-12-25T01:35:43.631Z,5.27
2022-12-25T01:38:29.880Z,5.27
2022-12-25T01:41:18.120Z,5.29
2022-12-25T01:44:28.977Z,5.27
2022-12-25T01:47:15.288Z,5.28
2022-12-25T01:50:01.956Z,5.32
2022-12-25T01:52:48.667Z,5.36
2022-12-25T01:55:35.435Z,5.37
2022-12-25T01:58:22.010Z,5.42
2022-12-25T02:01:08.487Z,5.51
2022-12-25T02:03:57.123Z,5.56
2022-12-25T02:06:43.528Z,5.57
2022-12-25T02:09:29.946Z,5.56
2022-12-25T02:12:29.697Z,5.57
2022-12-25T02:15:19.930Z,5.59
2022-12-25T02:18:14.293Z,5.54
2022-12-25T02:21:04.218Z,5.47
2022-12-25T02:24:08.645Z,5.41
2022-12-25T02:27:19.618Z,5.34
2022-12-25T02:30:07.927Z,5.27
2022-12-25T02:33:18.999Z,5.24
2022-12-25T02:36:07.357Z,5.22
2022-12-25T02:39:13.634Z,5.16
2022-12-25T02:42:01.145Z,5.07
2022-12-25T02:45:06.436Z,4.99
2022-12-25T02:48:11.192Z,4.97
2022-12-25T02:51:16.446Z,4.90
2022-12-25T02:54:24.270Z,4.82
2022-12-25T02:57:30.145Z,4.73
2022-12-25T03:00:35.169Z,4.67
2022-12-25T03:03:40.974Z,4.62
2022-12-25T03:06:43.841Z,4.59
2022-12-25T03:09:52.618Z,4.63
2022-12-25T03:12:55.665Z,4.64
2022-12-25T03:16:00.376Z,4.64
2022-12-25T03:18:46.467Z,4.70
2022-12-25T03:21:51.148Z,4.57
2022-12-25T03:24:55.931Z,4.33
2022-12-25T03:27:41.992Z,4.13
2022-12-25T03:30:54.106Z,4.04
2022-12-25T03:34:37.035Z,3.99
2022-12-25T03:37:44.227Z,3.97
2022-12-25T03:41:18.650Z,3.90
2022-12-25T03:44:34.393Z,3.84
2022-12-25T03:47:35.051Z,3.74
2022-12-25T03:50:42.695Z,3.62
2022-12-25T03:53:49.421Z,3.56
2022-12-25T03:56:55.339Z,3.56
2022-12-25T04:00:00.252Z,3.59
2022-12-25T04:03:05.093Z,3.55
2022-12-25T04:06:09.576Z,3.50
2022-12-25T04:09:14.390Z,3.44
2022-12-25T04:12:18.831Z,3.37
2022-12-25T04:15:24.462Z,3.30
2022-12-25T04:18:29.220Z,3.25
2022-12-25T04:21:33.892Z,3.24
2022-12-25T04:24:38.484Z,3.27
2022-12-25T04:27:43.073Z,3.29
2022-12-25T04:30:47.836Z,3.32
2022-12-25T04:33:52.603Z,3.35
2022-12-25T04:36:38.789Z,3.31
2022-12-25T04:39:25.227Z,3.18
2022-12-25T04:42:11.334Z,2.98
2022-12-25T04:44:58.039Z,2.80
2022-12-25T04:47:44.026Z,2.66
2022-12-25T04:50:30.619Z,2.61
2022-12-25T04:53:17.221Z,2.48
2022-12-25T04:56:03.769Z,2.41
2022-12-25T04:58:50.265Z,2.41
2022-12-25T05:01:36.738Z,2.39
2022-12-25T05:04:22.864Z,2.37
2022-12-25T05:07:09.272Z,2.32
2022-12-25T05:09:55.812Z,2.33
2022-12-25T05:12:42.143Z,2.37
2022-12-25T05:15:28.623Z,2.44
2022-12-25T05:18:15.117Z,2.52
2022-12-25T05:21:01.515Z,2.53
2022-12-25T05:23:51.643Z,2.52
2022-12-25T05:26:38.084Z,2.55
2022-12-25T05:29:24.365Z,2.65
2022-12-25T05:32:10.728Z,2.77
2022-12-25T05:34:57.121Z,2.86
2022-12-25T05:37:43.118Z,2.91
2022-12-25T05:40:29.484Z,2.92
2022-12-25T05:43:16.008Z,2.92
2022-12-25T05:46:07.246Z,2.91
2022-12-25T05:48:53.615Z,2.93
2022-12-25T05:51:40.229Z,2.98
2022-12-25T05:54:26.433Z,2.94
2022-12-25T05:57:12.722Z,2.97
2022-12-25T05:59:59.232Z,3.00
2022-12-25T06:02:46.106Z,3.03
2022-12-25T06:05:32.661Z,3.04
2022-12-25T06:08:19.077Z,3.02
2022-12-25T06:11:06.252Z,2.85
2022-12-25T06:13:53.039Z,2.66
2022-12-25T06:16:39.525Z,2.57
2022-12-25T06:19:25.974Z,2.47
2022-12-25T06:22:12.079Z,2.42
2022-12-25T06:24:58.508Z,2.36
2022-12-25T06:27:45.211Z,2.24
2022-12-25T06:30:32.065Z,2.21
2022-12-25T06:33:18.486Z,2.19
2022-12-25T06:36:15.017Z,2.22
2022-12-25T06:39:01.406Z,2.20
2022-12-25T06:41:47.956Z,2.22
2022-12-25T06:44:34.386Z,2.27
2022-12-25T06:47:20.564Z,2.30
2022-12-25T06:50:07.141Z,2.30
2022-12-25T06:52:53.271Z,2.31
2022-12-25T06:55:40.826Z,2.30
2022-12-25T06:58:27.062Z,2.26
2022-12-25T07:01:27.376Z,2.21
2022-12-25T07:04:18.374Z,2.19
2022-12-25T07:07:08.997Z,2.14
2022-12-25T07:09:56.159Z,2.13
2022-12-25T07:12:42.058Z,2.07
2022-12-25T07:15:28.644Z,2.05
2022-12-25T07:18:14.964Z,2.10
2022-12-25T07:21:19.937Z,2.18
2022-12-25T07:24:06.803Z,2.36
2022-12-25T07:26:53.465Z,2.56
2022-12-25T07:29:40.001Z,2.62
2022-12-25T07:32:30.388Z,2.61
2022-12-25T07:35:16.727Z,2.60
2022-12-25T07:38:03.073Z,2.58
2022-12-25T07:40:49.669Z,2.59
2022-12-25T07:43:35.932Z,2.64
2022-12-25T07:46:23.161Z,2.78
2022-12-25T07:49:10.169Z,2.94
2022-12-25T07:51:57.024Z,3.11
2022-12-25T07:54:43.567Z,3.29
2022-12-25T07:57:30.214Z,3.51
2022-12-25T08:00:17.591Z,3.72
2022-12-25T08:03:04.648Z,3.95
2022-12-25T08:05:51.045Z,4.18
2022-12-25T08:08:37.743Z,4.38
2022-12-25T08:11:24.164Z,4.48
2022-12-25T08:14:10.185Z,4.62
2022-12-25T08:16:56.794Z,4.81
2022-12-25T08:19:43.375Z,4.99
2022-12-25T08:22:30.096Z,5.18
2022-12-25T08:25:16.870Z,5.36
2022-12-25T08:28:03.308Z,5.58
2022-12-25T08:30:49.864Z,6.07
2022-12-25T08:33:36.660Z,6.54
2022-12-25T08:36:23.075Z,6.58
2022-12-25T08:39:09.349Z,6.70
2022-12-25T08:41:55.721Z,6.87
2022-12-25T08:44:42.032Z,7.01
2022-12-25T08:47:28.024Z,7.15
2022-12-25T08:50:14.525Z,7.29
2022-12-25T08:53:01.121Z,7.43
2022-12-25T08:55:47.572Z,7.53
2022-12-25T08:58:33.792Z,7.61
2022-12-25T09:01:20.386Z,7.77
2022-12-25T09:04:06.864Z,7.89
2022-12-25T09:06:53.331Z,7.87
2022-12-25T09:09:40.050Z,7.82
2022-12-25T09:12:26.265Z,7.80
2022-12-25T09:15:12.988Z,7.83
2022-12-25T09:17:59.616Z,7.88
2022-12-25T09:20:46.303Z,8.14
2022-12-25T09:23:32.727Z,8.28
2022-12-25T09:26:19.368Z,8.45
2022-12-25T09:29:05.906Z,8.70
2022-12-25T09:31:52.298Z,8.79
2022-12-25T09:34:39.228Z,9.03
2022-12-25T09:37:25.964Z,9.17
2022-12-25T09:40:19.159Z,9.22
2022-12-25T09:43:05.788Z,9.29
2022-12-25T09:45:52.190Z,9.41
2022-12-25T09:48:38.511Z,9.64
2022-12-25T09:51:24.779Z,9.81
2022-12-25T09:54:17.195Z,10.06
2022-12-25T09:57:03.802Z,10.87
2022-12-25T09:59:51.475Z,12.04
2022-12-25T10:03:05.876Z,12.91
2022-12-25T10:05:58.628Z,13.73
2022-12-25T10:08:46.727Z,14.01
2022-12-25T10:11:55.616Z,14.41
2022-12-25T10:15:07.178Z,14.45
2022-12-25T10:18:25.367Z,14.25
2022-12-25T10:21:16.759Z,13.56
2022-12-25T10:24:21.582Z,13.11
2022-12-25T10:27:15.088Z,12.70
2022-12-25T10:30:01.247Z,12.43
2022-12-25T10:32:48.100Z,12.34
2022-12-25T10:35:34.366Z,12.03
2022-12-25T10:38:20.773Z,11.71
2022-12-25T10:41:25.828Z,11.68
2022-12-25T10:44:24.258Z,11.90
2022-12-25T10:47:11.004Z,11.92
2022-12-25T10:49:57.884Z,11.64
2022-12-25T10:52:56.983Z,11.70
2022-12-25T10:55:43.652Z,11.93
2022-12-25T10:58:30.382Z,11.99
2022-12-25T11:01:17.047Z,11.75
2022-12-25T11:04:03.794Z,11.75
2022-12-25T11:06:57.646Z,11.94
2022-12-25T11:10:02.629Z,12.09
2022-12-25T11:12:51.541Z,12.37
2022-12-25T11:15:42.463Z,12.44
2022-12-25T11:18:32.261Z,12.53
2022-12-25T11:21:21.930Z,12.61
2022-12-25T11:24:19.768Z,12.71
2022-12-25T11:27:09.177Z,12.75
2022-12-25T11:30:00.109Z,12.46
2022-12-25T11:32:48.797Z,12.49
2022-12-25T11:35:42.923Z,12.64
2022-12-25T11:38:30.172Z,12.73
2022-12-25T11:41:20.521Z,12.82
2022-12-25T11:44:07.084Z,12.86
2022-12-25T11:46:55.018Z,12.60
2022-12-25T11:49:50.283Z,12.40
2022-12-25T11:52:37.804Z,12.37
2022-12-25T11:55:41.527Z,12.38
2022-12-25T11:58:33.216Z,12.55
2022-12-25T12:01:22.672Z,12.79
2022-12-25T12:04:30.859Z,12.92
2022-12-25T12:07:21.495Z,12.94
2022-12-25T12:10:17.807Z,13.06
2022-12-25T12:13:22.504Z,13.01
2022-12-25T12:16:09.194Z,13.00
2022-12-25T12:18:55.739Z,12.96
2022-12-25T12:21:44.240Z,13.05
2022-12-25T12:24:40.707Z,13.20
2022-12-25T12:27:27.498Z,13.19
2022-12-25T12:30:27.825Z,13.26
2022-12-25T12:33:18.392Z,13.29
2022-12-25T12:36:04.784Z,13.20
2022-12-25T12:38:51.295Z,13.18
2022-12-25T12:41:45.815Z,13.18
2022-12-25T12:44:32.515Z,13.30
2022-12-25T12:47:41.511Z,13.25
2022-12-25T12:50:29.219Z,13.21
2022-12-25T12:53:38.201Z,12.84
2022-12-25T12:56:25.476Z,12.44
2022-12-25T12:59:12.187Z,12.40
2022-12-25T13:02:17.155Z,12.25
2022-12-25T13:05:37.533Z,12.20
2022-12-25T13:08:31.527Z,12.21
2022-12-25T13:11:28.943Z,12.13
2022-12-25T13:14:17.446Z,11.78
2022-12-25T13:17:03.737Z,11.57
2022-12-25T13:20:00.056Z,11.35
2022-12-25T13:22:52.425Z,11.23
2022-12-25T13:25:39.180Z,10.99
2022-12-25T13:28:33.098Z,10.73
2022-12-25T13:31:21.022Z,10.51
2022-12-25T13:34:34.490Z,10.34
2022-12-25T13:37:22.416Z,10.17
2022-12-25T13:40:17.985Z,10.07
2022-12-25T13:43:04.382Z,10.09
2022-12-25T13:45:54.379Z,10.27
2022-12-25T13:48:41.391Z,10.20
2022-12-25T13:51:28.450Z,10.14
2022-12-25T13:54:15.860Z,10.05
2022-12-25T13:57:02.228Z,9.90
2022-12-25T13:59:48.375Z,9.68
2022-12-25T14:02:36.330Z,9.54
2022-12-25T14:05:28.528Z,9.45
2022-12-25T14:08:16.465Z,9.37
2022-12-25T14:11:05.016Z,9.33
2022-12-25T14:13:54.543Z,9.28
2022-12-25T14:16:43.395Z,9.21
2022-12-25T14:19:33.911Z,9.09
2022-12-25T14:22:23.280Z,8.95
2022-12-25T14:25:14.782Z,8.85
2022-12-25T14:28:02.170Z,8.83
2022-12-25T14:30:48.596Z,8.85
2022-12-25T14:33:37.345Z,8.77
2022-12-25T14:36:23.655Z,8.63
2022-12-25T14:39:45.183Z,8.55
2022-12-25T14:42:33.364Z,8.49
2022-12-25T14:45:32.972Z,8.44
2022-12-25T14:48:25.534Z,8.40
2022-12-25T14:51:16.195Z,8.32
2022-12-25T14:54:03.058Z,8.28
2022-12-25T14:56:51.610Z,8.24
2022-12-25T14:59:38.168Z,8.21
2022-12-25T15:02:24.557Z,8.12
2022-12-25T15:05:37.243Z,8.08
2022-12-25T15:08:24.289Z,8.03
2022-12-25T15:11:10.878Z,8.01
2022-12-25T15:13:57.075Z,8.01
2022-12-25T15:16:51.327Z,7.97
2022-12-25T15:19:38.902Z,7.87
2022-12-25T15:22:25.804Z,7.80
2022-12-25T15:25:14.395Z,7.80
2022-12-25T15:28:00.722Z,7.80
2022-12-25T15:30:47.030Z,7.82
2022-12-25T15:33:33.856Z,7.79
2022-12-25T15:36:20.635Z,7.79
2022-12-25T15:39:07.312Z,7.77
2022-12-25T15:42:11.555Z,7.74
2022-12-25T15:44:57.902Z,7.73
2022-12-25T15:47:44.149Z,7.70
2022-12-25T15:50:32.538Z,7.67
2022-12-25T15:53:18.993Z,7.65
2022-12-25T15:56:05.625Z,7.62
2022-12-25T15:58:52.314Z,7.59
2022-12-25T16:01:38.792Z,7.57
2022-12-25T16:04:25.486Z,7.56
2022-12-25T16:07:17.337Z,7.58
2022-12-25T16:10:05.824Z,7.56
2022-12-25T16:12:52.323Z,7.55
2022-12-25T16:15:38.702Z,7.51
2022-12-25T16:18:25.039Z,7.46
2022-12-25T16:21:16.645Z,7.42
2022-12-25T16:24:03.120Z,7.43
2022-12-25T16:26:49.478Z,7.40
2022-12-25T16:29:36.110Z,7.35
2022-12-25T16:32:22.689Z,7.32
2022-12-25T16:35:09.614Z,7.31
2022-12-25T16:37:57.133Z,7.32
2022-12-25T16:40:43.622Z,7.29
2022-12-25T16:43:29.668Z,7.29
2022-12-25T16:46:17.564Z,7.29
2022-12-25T16:49:04.023Z,7.27
2022-12-25T16:51:50.404Z,7.24
2022-12-25T16:54:37.055Z,7.22
2022-12-25T16:57:23.147Z,7.21
2022-12-25T17:00:10.138Z,7.21
2022-12-25T17:02:57.202Z,7.22
2022-12-25T17:05:43.976Z,7.22
2022-12-25T17:08:30.160Z,7.24
2022-12-25T17:11:16.606Z,7.23
2022-12-25T17:14:03.810Z,7.22
2022-12-25T17:16:51.062Z,7.20
2022-12-25T17:19:38.006Z,7.19
2022-12-25T17:22:24.521Z,7.19
2022-12-25T17:25:10.871Z,7.17
2022-12-25T17:27:57.284Z,7.13
2022-12-25T17:30:43.904Z,7.07
2022-12-25T17:33:30.235Z,7.03
2022-12-25T17:36:18.433Z,7.01
2022-12-25T17:39:05.509Z,7.02
2022-12-25T17:41:51.693Z,7.04
2022-12-25T17:44:38.119Z,7.07
2022-12-25T17:47:24.249Z,7.12
2022-12-25T17:50:10.610Z,7.13
2022-12-25T17:52:57.219Z,7.10
2022-12-25T17:55:43.996Z,7.07
2022-12-25T17:58:30.194Z,7.00
2022-12-25T18:01:16.452Z,6.93
2022-12-25T18:04:03.539Z,6.87
2022-12-25T18:06:49.840Z,6.88
2022-12-25T18:09:36.368Z,6.85
2022-12-25T18:12:22.690Z,6.84
2022-12-25T18:15:09.829Z,6.87
2022-12-25T18:17:56.249Z,6.87
2022-12-25T18:20:42.632Z,6.89
2022-12-25T18:23:29.325Z,6.84
2022-12-25T18:26:16.060Z,6.83
2022-12-25T18:29:02.368Z,6.83
2022-12-25T18:31:49.100Z,6.85
2022-12-25T18:34:35.267Z,6.85
2022-12-25T18:37:21.273Z,6.84
2022-12-25T18:40:08.804Z,6.84
2022-12-25T18:43:02.758Z,6.86
2022-12-25T18:45:57.212Z,6.88
2022-12-25T18:48:43.707Z,6.90
2022-12-25T18:51:36.636Z,6.90
2022-12-25T18:54:23.845Z,6.90
2022-12-25T18:57:10.478Z,6.93
2022-12-25T18:59:56.690Z,6.93
2022-12-25T19:02:43.159Z,6.96
2022-12-25T19:05:30.098Z,6.99
2022-12-25T19:08:16.529Z,7.01
2022-12-25T19:11:07.108Z,7.09
2022-12-25T19:13:53.592Z,7.14
2022-12-25T19:16:39.852Z,7.12
2022-12-25T19:19:26.684Z,7.11
2022-12-25T19:22:13.408Z,7.11
2022-12-25T19:24:59.673Z,7.13
2022-12-25T19:27:46.011Z,7.10
2022-12-25T19:30:32.307Z,7.05
2022-12-25T19:33:18.855Z,7.00
2022-12-25T19:36:17.368Z,6.98
2022-12-25T19:39:05.008Z,6.98
2022-12-25T19:41:51.560Z,6.97
2022-12-25T19:44:38.205Z,6.93
2022-12-25T19:47:24.248Z,6.86
2022-12-25T19:50:10.403Z,6.82
2022-12-25T19:52:56.991Z,6.79
2022-12-25T19:55:44.311Z,6.76
2022-12-25T19:58:30.720Z,6.74
2022-12-25T20:01:19.167Z,6.73
2022-12-25T20:04:09.701Z,6.74
2022-12-25T20:06:56.159Z,6.73
2022-12-25T20:09:42.415Z,6.69
2022-12-25T20:12:28.623Z,6.68
2022-12-25T20:15:14.957Z,6.69
2022-12-25T20:18:02.928Z,6.71
2022-12-25T20:20:49.561Z,6.75
2022-12-25T20:23:36.196Z,6.76
2022-12-25T20:26:24.941Z,6.78
2022-12-25T20:29:11.492Z,6.76
2022-12-25T20:31:57.844Z,6.74
2022-12-25T20:34:44.558Z,6.75
2022-12-25T20:37:31.030Z,6.72
2022-12-25T20:40:17.486Z,6.70
2022-12-25T20:43:04.159Z,6.66
2022-12-25T20:45:51.553Z,6.64
2022-12-25T20:48:38.507Z,6.64
2022-12-25T20:51:25.333Z,6.65
2022-12-25T20:54:12.784Z,6.66
2022-12-25T20:56:59.427Z,6.61
2022-12-25T20:59:45.732Z,6.57
2022-12-25T21:02:36.715Z,6.60
2022-12-25T21:05:23.722Z,6.61
2022-12-25T21:08:10.381Z,6.62
2022-12-25T21:11:00.675Z,6.63
2022-12-25T21:13:47.204Z,6.64
2022-12-25T21:16:33.839Z,6.63
2022-12-25T21:19:20.220Z,6.65
2022-12-25T21:22:06.577Z,6.66
2022-12-25T21:24:53.419Z,6.66
2022-12-25T21:27:40.709Z,6.66
2022-12-25T21:30:27.205Z,6.68
2022-12-25T21:33:32.783Z,6.74
2022-12-25T21:36:19.438Z,6.77
2022-12-25T21:39:06.983Z,6.77
2022-12-25T21:41:53.565Z,6.76
2022-12-25T21:44:40.322Z,6.79
2022-12-25T21:47:26.617Z,6.82
2022-12-25T21:50:51.833Z,6.81
2022-12-25T21:53:37.915Z,6.77
2022-12-25T21:56:25.565Z,6.77
2022-12-25T21:59:14.383Z,6.79
2022-12-25T22:02:00.903Z,6.79
2022-12-25T22:04:47.467Z,6.79
2022-12-25T22:07:33.800Z,6.76
2022-12-25T22:10:20.356Z,6.72
2022-12-25T22:13:24.848Z,6.69
2022-12-25T22:16:30.019Z,6.69
2022-12-25T22:19:34.803Z,6.73
2022-12-25T22:22:23.293Z,6.77
2022-12-25T22:25:10.783Z,6.74
2022-12-25T22:27:57.285Z,6.75
2022-12-25T22:30:44.509Z,6.71
2022-12-25T22:33:31.090Z,6.71
2022-12-25T22:36:17.552Z,6.69
2022-12-25T22:39:04.068Z,6.64
2022-12-25T22:41:50.339Z,6.63
2022-12-25T22:44:36.692Z,6.66
2022-12-25T22:47:23.179Z,6.65
2022-12-25T22:50:10.317Z,6.67
2022-12-25T22:52:56.627Z,6.70
2022-12-25T22:55:49.491Z,6.70
2022-12-25T22:58:36.049Z,6.68
2022-12-25T23:01:22.350Z,6.70
2022-12-25T23:04:09.635Z,6.75
2022-12-25T23:06:55.991Z,6.81
2022-12-25T23:09:43.158Z,6.87
2022-12-25T23:12:48.140Z,6.92
2022-12-25T23:15:34.708Z,7.00
2022-12-25T23:18:39.807Z,7.00
2022-12-25T23:21:45.151Z,6.99
2022-12-25T23:24:49.867Z,6.92
2022-12-25T23:27:36.253Z,6.90
2022-12-25T23:30:22.731Z,6.89
2022-12-25T23:33:09.039Z,6.89
2022-12-25T23:35:55.263Z,6.88
2022-12-25T23:38:42.153Z,6.89
2022-12-25T23:41:28.746Z,6.88
2022-12-25T23:44:15.308Z,6.91
2022-12-25T23:47:01.577Z,6.93
2022-12-25T23:49:48.183Z,6.97
2022-12-25T23:52:34.540Z,6.97
2022-12-25T23:55:20.985Z,7.01
2022-12-25T23:58:07.293Z,7.03
